• Join FlightAware (Why Join?)
  • Login
  • US Flag 
06:39AM EDT


 

Airport Tracker/Info


-or-


 

Live Flight TrackerFlight Track Log ✈ UAL395 ✈ 19-Aug-2013 ✈ KORD - KIAH

Flight Track Log - Related Links

Times and Time Zones

All times are in EDT time to prevent confusion due to time zone crossing. See the UAL395 flight status page for this flight to view local times or setup timezone preferences in your user account.

Time Position Orientation Groundspeed Altitude Reporting Facility
EDT Latitude Longitude Course Direction KTS MPH feet Rate Location/Type
06:17PM 41.9000 -87.9333 200° South 214 246 3,700  Level Chicago TRACON
06:18PM 41.8333 -87.9500 191° South 257 296 5,500 2,400 Climbing Chicago TRACON
06:19PM 41.8008 -87.9664 201° Southwest 257 296 7,100 3,000 Climbing Chicago Center
06:20PM 41.6102 -88.1807 189° South  Level Estimated
06:20PM 41.7236 -87.9772 186° South 278 320 10,100  Level Chicago Center
06:21PM 41.5207 -88.1048 148° Southeast  Level FlightAware Approximate
06:21PM 41.6414 -87.9908 187° South 295 339 12,800  Level Chicago Center
06:22PM 41.4282 -88.1737 201° Southwest  Level Estimated
06:22PM 41.5553 -88.0069 188° South 310 357 14,900  Level Chicago Center
06:23PM 41.4633 -88.0225 187° South 330 380 15,800 1,200 Climbing Chicago Center
06:24PM 41.3483 -88.0492 190° South 381 438 17,400 1,740 Climbing Chicago Center
06:25PM 41.2392 -88.0872 195° South 403 464 19,500 1,980 Climbing Chicago Center
06:26PM 41.1328 -88.1422 201° Southwest 415 478 21,500 1,860 Climbing Chicago Center
06:28PM 40.9314 -88.2839 208° Southwest 428 493 24,900 1,740 Climbing Kansas City Center
06:29PM 40.8192 -88.3581 207° Southwest 440 506 26,600 1,500 Climbing Kansas City Center
06:30PM 40.7089 -88.4358 208° Southwest 447 514 28,100 1,320 Climbing Kansas City Center
06:31PM 40.5944 -88.5139 207° Southwest 456 525 29,400 1,440 Climbing Kansas City Center
06:32PM 40.4767 -88.5931 207° Southwest 468 539 31,100 1,800 Climbing Kansas City Center
06:33PM 40.3403 -88.6853 207° Southwest 463 533 33,200 1,380 Climbing Kansas City Center
06:34PM 40.2294 -88.7597 207° Southwest 457 526 34,000 360 Climbing Kansas City Center
06:35PM 40.1217 -88.8325 207° Southwest 448 516 34,000  Level Kansas City Center
06:36PM 40.0117 -88.9061 207° Southwest 443 510 34,000  Level Kansas City Center
06:37PM 39.9000 -88.9792 207° Southwest 446 513 34,000  Level Kansas City Center
06:38PM 39.7883 -89.0547 207° Southwest 449 517 34,000  Level Kansas City Center
06:39PM 39.6758 -89.1292 207° Southwest 451 519 34,000  Level Kansas City Center
06:40PM 39.5417 -89.2150 206° Southwest 448 516 34,000  Level Kansas City Center
06:41PM 39.4356 -89.2858 207° Southwest 444 511 34,000  Level Kansas City Center
06:42PM 39.3256 -89.3589 207° Southwest 444 511 34,000  Level Kansas City Center
06:43PM 39.2172 -89.4308 207° Southwest 440 506 34,000  Level Kansas City Center
06:44PM 39.0942 -89.5089 206° Southwest 432 497 34,000  Level Kansas City Center
06:45PM 38.9861 -89.5792 207° Southwest 435 501 34,000  Level Kansas City Center
06:46PM 38.8697 -89.6536 206° Southwest 434 499 34,000  Level Kansas City Center
06:48PM 38.7597 -89.7217 206° Southwest 439 505 34,000  Level Kansas City Center
06:49PM 38.6494 -89.7911 206° Southwest 439 505 34,000  Level Kansas City Center
06:50PM 38.5394 -89.8608 206° Southwest 438 504 34,000  Level Kansas City Center
06:51PM 38.4292 -89.9317 207° Southwest 440 506 34,000  Level Kansas City Center
06:52PM 38.3194 -90.0028 207° Southwest 439 505 34,000  Level Kansas City Center
06:53PM 38.2067 -90.0711 205° Southwest 443 510 34,000  Level Kansas City Center
06:54PM 38.0964 -90.1428 207° Southwest 445 512 34,000  Level Kansas City Center
06:55PM 37.9631 -90.2272 207° Southwest 444 511 34,000  Level Kansas City Center
06:56PM 37.8536 -90.2975 207° Southwest 441 507 34,000  Level Kansas City Center
06:57PM 37.7414 -90.3683 207° Southwest 446 513 34,000  Level Kansas City Center
06:58PM 37.6297 -90.4331 205° Southwest 444 511 34,000  Level Kansas City Center
06:59PM 37.5189 -90.5056 207° Southwest 447 514 34,000  Level Kansas City Center
07:00PM 37.4061 -90.5747 206° Southwest 450 518 34,000  Level Kansas City Center
07:01PM 37.2781 -90.6525 206° Southwest 447 514 34,000  Level Kansas City Center
07:02PM 37.1653 -90.7211 206° Southwest 449 517 34,000  Level Kansas City Center
07:03PM 37.0536 -90.7878 205° Southwest 448 516 34,000  Level Kansas City Center
07:04PM 36.9436 -90.8533 205° Southwest 442 509 34,000  Level Kansas City Center
07:05PM 36.8411 -90.9169 206° Southwest 450 518 34,000  Level Memphis Center
07:06PM 36.7303 -90.9833 206° Southwest 445 512 34,000  Level Memphis Center
07:07PM 36.6175 -91.0525 206° Southwest 445 512 34,000  Level Memphis Center
07:08PM 36.5067 -91.1133 204° Southwest 445 512 34,000  Level Memphis Center
07:09PM 36.3914 -91.1869 207° Southwest 453 521 34,000  Level Memphis Center
07:10PM 36.2764 -91.2528 205° Southwest 458 527 34,000  Level Memphis Center
07:11PM 36.1675 -91.3211 207° Southwest 453 521 34,000  Level Memphis Center
07:12PM 36.0522 -91.3892 206° Southwest 453 521 34,000  Level Memphis Center
07:13PM 35.9369 -91.4542 205° Southwest 453 521 34,000  Level Memphis Center
07:14PM 35.8239 -91.5194 205° Southwest 453 521 34,000  Level Memphis Center
07:15PM 35.7106 -91.5869 206° Southwest 447 514 34,000  Level Memphis Center
07:16PM 35.5931 -91.6567 206° Southwest 447 514 34,000  Level Memphis Center
07:17PM 35.4756 -91.7236 205° Southwest 452 520 34,000  Level Memphis Center
07:18PM 35.3581 -91.7903 205° Southwest 463 533 34,000  Level Memphis Center
07:19PM 35.2425 -91.8572 205° Southwest 463 533 34,000  Level Memphis Center
07:20PM 35.1269 -91.9186 203° Southwest 463 533 34,000  Level Memphis Center
07:21PM 35.0014 -91.9542 193° South 463 533 34,000  Level Memphis Center
07:22PM 34.8717 -91.9822 190° South 463 533 34,000  Level Memphis Center
07:23PM 34.7461 -92.0125 191° South 468 539 34,000  Level Memphis Center
07:24PM 34.6225 -92.0406 191° South 468 539 34,000  Level Memphis Center
07:25PM 34.4969 -92.0708 191° South 468 539 34,000  Level Memphis Center
07:26PM 34.3736 -92.0986 191° South 468 539 34,000 540 Level Memphis Center
07:27PM 34.2458 -92.1336 193° South 468 539 35,100 960 Climbing Memphis Center
07:28PM 34.1264 -92.1614 191° South 463 533 36,000 420 Climbing Memphis Center
07:29PM 34.0236 -92.1942 195° South 448 516 36,000  Level Memphis Center
07:31PM 33.7069 -92.2678 191° South 446 513 36,000  Level Fort Worth Center
07:32PM 33.5808 -92.2950 190° South 457 526 36,000  Level Fort Worth Center
07:33PM 33.4589 -92.3244 191° South 457 526 36,000  Level Fort Worth Center
07:34PM 33.3369 -92.3539 191° South 457 526 36,000  Level Fort Worth Center
07:35PM 33.2106 -92.3811 190° South 462 532 36,000  Level Fort Worth Center
07:36PM 33.0867 -92.4128 192° South 462 532 36,000  Level Fort Worth Center
07:37PM 32.9628 -92.4419 191° South 462 532 36,000  Level Fort Worth Center
07:38PM 32.8447 -92.4683 191° South 450 518 36,000  Level Fort Worth Center
07:40PM 32.5750 -92.5364 192° South 444 511 36,000  Level Houston Center
07:42PM 32.4547 -92.5633 191° South 442 509 36,000  Level Houston Center
07:43PM 32.3358 -92.5914 191° South 439 505 36,000  Level Houston Center
07:44PM 32.2186 -92.6197 192° South 434 499 36,000  Level Houston Center
07:45PM 32.1000 -92.6478 191° South 435 501 36,000 -60 Level Houston Center
07:46PM 31.9617 -92.6875 194° South 430 495 35,900  Descending Houston Center
07:47PM 31.8733 -92.7750 220° Southwest 420 483 36,000  Climbing Houston Center
07:48PM 31.7842 -92.8625 220° Southwest 418 481 36,000  Level Houston Center
07:49PM 31.6914 -92.9467 218° Southwest 421 484 36,000  Level Houston Center
07:50PM 31.6006 -93.0339 219° Southwest 422 486 36,000  Level Houston Center
07:51PM 31.5103 -93.1219 220° Southwest 422 486 36,000 -480 Level Houston Center
07:52PM 31.4008 -93.2283 220° Southwest 425 489 35,100 -1,140 Descending Houston Center
07:53PM 31.3108 -93.3136 219° Southwest 425 489 33,700 -1,440 Descending Houston Center
07:54PM 31.2153 -93.4061 220° Southwest 438 504 32,200 -1,440 Descending Houston Center
07:55PM 31.1192 -93.4964 219° Southwest 445 512 30,800 -1,500 Descending Houston Center
07:56PM 31.0228 -93.5886 219° Southwest 449 517 29,200 -1,440 Descending Houston Center
07:57PM 30.9236 -93.6819 219° Southwest 460 529 27,900 -1,080 Descending Houston Center
07:58PM 30.8033 -93.7958 219° Southwest 467 537 27,000 -1,620 Descending Houston Center
07:59PM 30.7083 -93.8894 220° Southwest 461 531 24,600 -2,400 Descending Houston Center
08:00PM 30.6144 -93.9764 219° Southwest 444 511 22,200 -2,520 Descending Houston Center
08:01PM 30.5364 -94.0456 217° Southwest 429 494 20,100 -2,340 Descending Houston Center
08:02PM 30.4317 -94.1439 219° Southwest 420 483 17,400 -2,400 Descending Houston Center
08:03PM 30.3272 -94.2431 219° Southwest 408 470 14,600 -2,460 Descending Houston Center
08:04PM 30.2458 -94.3197 219° Southwest 385 443 12,400 -1,320 Descending Houston Center
08:05PM 30.1911 -94.4108 235° Southwest 357 411 11,900 -540 Descending Houston Center
08:06PM 30.1742 -94.5069 258° West 340 391 11,300 -840 Descending Houston Center
08:07PM 30.1492 -94.6369 257° West 294 338 10,100 -1,140 Descending Houston Center
08:08PM 30.1317 -94.7383 259° West 289 333 8,800 -1,080 Descending Houston Center
08:09PM 30.1197 -94.8097 259° West 288 331 8,000 -1,020 Descending Houston Center
08:10PM 30.1053 -94.9011 260° West 285 328 7,000 -960 Descending Houston Center
08:11PM 30.1047 -95.0050 270° West 286 329 6,000 -540 Descending Houston Center
08:12PM 30.1042 -95.0897 270° West 285 328 6,000  Level Houston Center
08:13PM 30.1064 -95.1817 272° West 275 316 6,000  Level Houston Center
08:14PM 30.1094 -95.2561 273° West 241 277 6,000  Level Houston Center
08:16PM 30.1086 -95.3325 269° West 238 274 6,000 -540 Level Houston Center
08:17PM 30.1081 -95.4064 270° West 234 269 5,000 -1,020 Descending Houston Center
08:18PM 30.1067 -95.4806 269° West 232 267 3,900 -1,020 Descending Houston Center
08:19PM 30.1058 -95.5531 269° West 230 265 3,000 -480 Descending Houston Center
08:20PM 30.0517 -95.5794 203° Southwest 215 247 3,000  Level Houston Center
08:21PM 30.0208 -95.5319 127° Southeast 167 192 3,000 -420 Level Houston Center
08:22PM 30.0061 -95.4853 110° East 167 192 2,300 -840 Descending Houston Center
08:23PM 30.0075 -95.4297 88° East 148 170 1,300 -840 Descending Houston Center
08:24PM 30.0061 -95.3936 93° East 124 143 700 -480 Descending Houston Center
08:25PM 30.0081 -95.3419 87° East 143 165 400 -300 Descending Houston Center